This is the latest recevied weather packets stored in our database for station/object OM6ACB-6. If no packets are shown the sender has not sent any weather packets the latest 10 day(s).
| Time | Temp. | Humidity | Pressure | Rain* | Wind** | Luminosity | Snow |
|---|---|---|---|---|---|---|---|
| 1787920234 | 29.44° C | 20% | 1022.5 hPa | 0 mm | - | - | - |
| 1787919634 | 29.44° C | 20% | 1022.4 hPa | 0 mm | - | - | - |
| 1787919034 | 29.44° C | 20% | 1022.5 hPa | 0 mm | - | - | - |
| 1787918433 | 27.78° C | 20% | 1022.5 hPa | 0 mm | - | - | - |
| 1787917833 | 28.89° C | 20% | 1023 hPa | 0 mm | - | - | - |
| 1787917233 | 30° C | 20% | 1022.9 hPa | 0 mm | - | - | - |
| 1787916632 | 28.33° C | 20% | 1023 hPa | 0 mm | - | - | - |
| 1787916032 | 28.89° C | 20% | 1023.3 hPa | 0 mm | - | - | - |
| 1787915432 | 30° C | 20% | 1023.6 hPa | 0 mm | - | - | - |
| 1787914832 | 29.44° C | 20% | 1023.5 hPa | 0 mm | - | - | - |
| 1787914231 | 29.44° C | 20% | 1023.7 hPa | 0 mm | - | - | - |
| 1787913631 | 27.78° C | 20% | 1023.6 hPa | 0 mm | - | - | - |
| 1787913031 | 28.89° C | 20% | 1023.7 hPa | 0 mm | - | - | - |
| 1787912430 | 28.89° C | 20% | 1023.9 hPa | 0 mm | - | - | - |
| 1787911830 | 28.89° C | 20% | 1024.1 hPa | 0 mm | - | - | - |
| 1787911230 | 27.78° C | 20% | 1024 hPa | 0 mm | - | - | - |
| 1787910629 | 28.33° C | 20% | 1024.2 hPa | 0 mm | - | - | - |
| 1787910029 | 26.67° C | 20% | 1024.2 hPa | 0 mm | - | - | - |
| 1787909429 | 27.22° C | 20% | 1024.3 hPa | 0 mm | - | - | - |
| 1787908829 | 27.22° C | 20% | 1024.4 hPa | 0 mm | - | - | - |
| 1787908228 | 27.78° C | 20% | 1024.5 hPa | 0 mm | - | - | - |
| 1787907628 | 26.67° C | 20% | 1024.5 hPa | 0 mm | - | - | - |
| 1787907028 | 27.22° C | 20% | 1024.7 hPa | 0 mm | - | - | - |
| 1787906427 | 25.56° C | 20% | 1024.5 hPa | 0 mm | - | - | - |
| 1787905827 | 25.56° C | 20% | 1024.6 hPa | 0 mm | - | - | - |
* Rain latest hour (hover to see other rain measurements)
** Current wind speed in m/s (hover to see current wind gust speed)